Hampton, NH (03842)

6:57 PM EDT on September 28, 2016 (GMT -0400)
Towle Farm | | Change Station

Elev 56 ft 42.94 °N, 70.85 °W | Updated 14 minutes ago

Mostly Cloudy
Mostly Cloudy
56.6 °F
Feels Like 56.6 °F
N
0.0
Wind Variable Wind from NNE
Gusts 5.0 mph

Today
High -- | Low -- °F
--% Chance of Precip.
Yesterday
High -- | Low -- °F
Precip. -- in
Pressure 30.31 in
Visibility 10.0 miles
Clouds Mostly Cloudy 3000 ft
Dew Point 52 °F
Humidity 85%
Rainfall 0.00 in
Snow Depth Not available.
6:37 AM 6:29 PM
Waning Crescent, 4% visible
METAR KPSM 282158Z 05007KT 10SM BKN030 15/09 A3030 RMK AO2A SLP263 T01470090
Pressure 30.31 in
Visibility 10.0 miles
Clouds Mostly Cloudy 3000 ft
Dew Point 52 °F
Humidity 85%
Rainfall 0.00 in
Snow Depth Not available.
6:37 AM 6:29 PM
Waning Crescent, 4% visible
METAR KPSM 282158Z 05007KT 10SM BKN030 15/09 A3030 RMK AO2A SLP263 T01470090

10-Day Weather Forecast

Almanac

Astronomy

Sep. 28, 2016 Rise Set
Actual Time
Civil Twilight
Nautical Twilight
Astronomical Twilight
Moon
Length of Visible Light
Length of Day
Tomorrow will be .
, % of the Moon is Illuminated

Today's Extremes

State Highs State Lows

Community

WunderPhotos

Upload Photos

1,942,339 photos uploaded!

WunderBlog® & News

Nearby

Air Quality

  Air Quality AQ Index Pollutant
Not available.

Snow Depth

Station Depth Elevation

Earthquake Activity

City Distance Mag. Time & Date
Minimum magnitude displayed is 2.5.

Coastal Water Temperatures

Place Temperature

Stations

Nearby Weather Stations

Station Location Temp. Windchill Dew Point Humidity Wind Precip. Elev Updated Type
                   

Watches & Warnings

There are currently no watches in effect.